sensor_id;sensor_type;location;lat;lon;timestamp;P1;durP1;ratioP1;P2;durP2;ratioP2
15716;SDS011;7960;50.908;4.204;2022-11-20T00:00:19;45.57;;;24.70;;
15716;SDS011;7960;50.908;4.204;2022-11-20T00:02:45;45.37;;;24.03;;
15716;SDS011;7960;50.908;4.204;2022-11-20T00:05:14;39.13;;;23.83;;
15716;SDS011;7960;50.908;4.204;2022-11-20T00:07:41;45.83;;;24.70;;
15716;SDS011;7960;50.908;4.204;2022-11-20T00:10:08;46.47;;;27.03;;
15716;SDS011;7960;50.908;4.204;2022-11-20T00:12:35;48.40;;;27.90;;
15716;SDS011;7960;50.908;4.204;2022-11-20T00:15:02;43.70;;;25.13;;
15716;SDS011;7960;50.908;4.204;2022-11-20T00:17:29;47.63;;;26.73;;
15716;SDS011;7960;50.908;4.204;2022-11-20T00:19:56;44.67;;;25.10;;
15716;SDS011;7960;50.908;4.204;2022-11-20T00:22:24;48.50;;;26.23;;
15716;SDS011;7960;50.908;4.204;2022-11-20T00:24:51;44.70;;;24.60;;
15716;SDS011;7960;50.908;4.204;2022-11-20T00:27:18;46.57;;;25.40;;
15716;SDS011;7960;50.908;4.204;2022-11-20T00:29:44;41.43;;;24.97;;
15716;SDS011;7960;50.908;4.204;2022-11-20T00:32:11;48.57;;;26.90;;
15716;SDS011;7960;50.908;4.204;2022-11-20T00:34:38;43.87;;;25.10;;
15716;SDS011;7960;50.908;4.204;2022-11-20T00:37:05;49.67;;;26.10;;
15716;SDS011;7960;50.908;4.204;2022-11-20T00:39:34;44.53;;;24.83;;
15716;SDS011;7960;50.908;4.204;2022-11-20T00:42:00;44.83;;;24.73;;
15716;SDS011;7960;50.908;4.204;2022-11-20T00:44:27;44.70;;;24.43;;
15716;SDS011;7960;50.908;4.204;2022-11-20T00:46:54;46.63;;;25.57;;
15716;SDS011;7960;50.908;4.204;2022-11-20T00:49:21;39.03;;;24.30;;
15716;SDS011;7960;50.908;4.204;2022-11-20T00:51:48;47.53;;;25.20;;
15716;SDS011;7960;50.908;4.204;2022-11-20T00:54:14;51.10;;;25.00;;
15716;SDS011;7960;50.908;4.204;2022-11-20T00:56:43;46.23;;;26.17;;
15716;SDS011;7960;50.908;4.204;2022-11-20T00:59:10;43.40;;;24.07;;
15716;SDS011;7960;50.908;4.204;2022-11-20T01:01:37;45.03;;;24.87;;
15716;SDS011;7960;50.908;4.204;2022-11-20T01:04:04;45.10;;;25.97;;
15716;SDS011;7960;50.908;4.204;2022-11-20T01:06:32;45.80;;;25.90;;
15716;SDS011;7960;50.908;4.204;2022-11-20T01:09:00;50.90;;;27.27;;
15716;SDS011;7960;50.908;4.204;2022-11-20T01:11:33;50.17;;;25.73;;
15716;SDS011;7960;50.908;4.204;2022-11-20T01:14:03;45.67;;;25.50;;
15716;SDS011;7960;50.908;4.204;2022-11-20T01:16:32;50.87;;;26.43;;
15716;SDS011;7960;50.908;4.204;2022-11-20T01:19:02;49.10;;;26.03;;
15716;SDS011;7960;50.908;4.204;2022-11-20T01:21:32;48.00;;;26.33;;
15716;SDS011;7960;50.908;4.204;2022-11-20T01:24:00;41.97;;;25.77;;
15716;SDS011;7960;50.908;4.204;2022-11-20T01:26:28;51.57;;;26.10;;
15716;SDS011;7960;50.908;4.204;2022-11-20T01:28:56;49.33;;;26.27;;
15716;SDS011;7960;50.908;4.204;2022-11-20T01:31:27;43.07;;;25.57;;
15716;SDS011;7960;50.908;4.204;2022-11-20T01:33:56;45.23;;;26.63;;
15716;SDS011;7960;50.908;4.204;2022-11-20T01:36:25;45.73;;;25.83;;
15716;SDS011;7960;50.908;4.204;2022-11-20T01:38:53;46.83;;;26.67;;
15716;SDS011;7960;50.908;4.204;2022-11-20T01:41:22;46.83;;;26.97;;
15716;SDS011;7960;50.908;4.204;2022-11-20T01:44:08;51.57;;;27.00;;
15716;SDS011;7960;50.908;4.204;2022-11-20T01:46:42;53.07;;;27.47;;
15716;SDS011;7960;50.908;4.204;2022-11-20T01:49:19;55.93;;;27.33;;
15716;SDS011;7960;50.908;4.204;2022-11-20T01:51:51;47.80;;;25.97;;
15716;SDS011;7960;50.908;4.204;2022-11-20T01:54:24;50.13;;;27.80;;
15716;SDS011;7960;50.908;4.204;2022-11-20T01:56:56;47.70;;;27.03;;
15716;SDS011;7960;50.908;4.204;2022-11-20T01:59:25;51.40;;;26.57;;
15716;SDS011;7960;50.908;4.204;2022-11-20T02:01:55;46.50;;;25.27;;
15716;SDS011;7960;50.908;4.204;2022-11-20T02:04:22;51.33;;;26.90;;
15716;SDS011;7960;50.908;4.204;2022-11-20T02:06:51;45.33;;;25.80;;
15716;SDS011;7960;50.908;4.204;2022-11-20T02:09:25;44.53;;;24.97;;
15716;SDS011;7960;50.908;4.204;2022-11-20T02:11:53;50.43;;;26.60;;
15716;SDS011;7960;50.908;4.204;2022-11-20T02:14:21;45.73;;;25.70;;
15716;SDS011;7960;50.908;4.204;2022-11-20T02:16:48;47.33;;;24.67;;
15716;SDS011;7960;50.908;4.204;2022-11-20T02:19:19;42.93;;;24.97;;
15716;SDS011;7960;50.908;4.204;2022-11-20T02:21:52;41.70;;;25.10;;
15716;SDS011;7960;50.908;4.204;2022-11-20T02:24:27;48.80;;;25.47;;
15716;SDS011;7960;50.908;4.204;2022-11-20T02:26:56;46.27;;;25.83;;
15716;SDS011;7960;50.908;4.204;2022-11-20T02:29:26;48.43;;;25.97;;
15716;SDS011;7960;50.908;4.204;2022-11-20T02:31:57;51.30;;;26.23;;
15716;SDS011;7960;50.908;4.204;2022-11-20T02:34:26;48.37;;;26.47;;
15716;SDS011;7960;50.908;4.204;2022-11-20T02:36:53;44.77;;;24.57;;
15716;SDS011;7960;50.908;4.204;2022-11-20T02:39:21;49.00;;;25.63;;
15716;SDS011;7960;50.908;4.204;2022-11-20T02:41:53;45.73;;;25.37;;
15716;SDS011;7960;50.908;4.204;2022-11-20T02:44:21;47.97;;;25.37;;
15716;SDS011;7960;50.908;4.204;2022-11-20T02:46:48;46.63;;;24.50;;
15716;SDS011;7960;50.908;4.204;2022-11-20T02:49:15;52.30;;;26.70;;
15716;SDS011;7960;50.908;4.204;2022-11-20T02:51:42;53.60;;;25.73;;
15716;SDS011;7960;50.908;4.204;2022-11-20T02:54:09;47.97;;;25.63;;
15716;SDS011;7960;50.908;4.204;2022-11-20T02:56:37;52.03;;;26.33;;
15716;SDS011;7960;50.908;4.204;2022-11-20T02:59:05;42.20;;;24.33;;
15716;SDS011;7960;50.908;4.204;2022-11-20T03:01:35;50.00;;;24.57;;
15716;SDS011;7960;50.908;4.204;2022-11-20T03:04:02;52.33;;;25.43;;
15716;SDS011;7960;50.908;4.204;2022-11-20T03:06:29;48.03;;;26.10;;
15716;SDS011;7960;50.908;4.204;2022-11-20T03:08:56;48.00;;;24.60;;
15716;SDS011;7960;50.908;4.204;2022-11-20T03:11:22;45.00;;;25.27;;
15716;SDS011;7960;50.908;4.204;2022-11-20T03:13:49;41.53;;;22.90;;
15716;SDS011;7960;50.908;4.204;2022-11-20T03:16:18;43.40;;;23.37;;
15716;SDS011;7960;50.908;4.204;2022-11-20T03:18:46;47.07;;;25.17;;
15716;SDS011;7960;50.908;4.204;2022-11-20T03:21:13;46.20;;;24.33;;
15716;SDS011;7960;50.908;4.204;2022-11-20T03:23:40;45.43;;;24.47;;
15716;SDS011;7960;50.908;4.204;2022-11-20T03:26:08;43.63;;;24.27;;
15716;SDS011;7960;50.908;4.204;2022-11-20T03:28:37;44.27;;;24.03;;
15716;SDS011;7960;50.908;4.204;2022-11-20T03:31:07;44.07;;;24.13;;
15716;SDS011;7960;50.908;4.204;2022-11-20T03:33:36;47.47;;;24.20;;
15716;SDS011;7960;50.908;4.204;2022-11-20T03:36:04;48.60;;;24.17;;
15716;SDS011;7960;50.908;4.204;2022-11-20T03:38:33;44.60;;;24.67;;
15716;SDS011;7960;50.908;4.204;2022-11-20T03:41:00;49.27;;;25.10;;
15716;SDS011;7960;50.908;4.204;2022-11-20T03:43:28;48.00;;;25.50;;
15716;SDS011;7960;50.908;4.204;2022-11-20T03:45:55;48.47;;;24.53;;
15716;SDS011;7960;50.908;4.204;2022-11-20T03:48:22;42.77;;;24.77;;
15716;SDS011;7960;50.908;4.204;2022-11-20T03:50:51;45.73;;;24.90;;
15716;SDS011;7960;50.908;4.204;2022-11-20T03:53:18;46.80;;;25.23;;
15716;SDS011;7960;50.908;4.204;2022-11-20T03:55:50;48.20;;;26.30;;
15716;SDS011;7960;50.908;4.204;2022-11-20T03:58:17;47.83;;;25.13;;
15716;SDS011;7960;50.908;4.204;2022-11-20T04:00:44;51.57;;;25.77;;
15716;SDS011;7960;50.908;4.204;2022-11-20T04:03:11;45.30;;;24.03;;
15716;SDS011;7960;50.908;4.204;2022-11-20T04:05:38;47.97;;;25.77;;
15716;SDS011;7960;50.908;4.204;2022-11-20T04:08:06;46.27;;;24.87;;
15716;SDS011;7960;50.908;4.204;2022-11-20T04:10:33;45.47;;;24.50;;
15716;SDS011;7960;50.908;4.204;2022-11-20T04:13:00;46.70;;;24.67;;
15716;SDS011;7960;50.908;4.204;2022-11-20T04:15:27;44.93;;;24.33;;
15716;SDS011;7960;50.908;4.204;2022-11-20T04:17:53;49.47;;;25.23;;
15716;SDS011;7960;50.908;4.204;2022-11-20T04:20:20;45.13;;;24.87;;
15716;SDS011;7960;50.908;4.204;2022-11-20T04:22:47;48.40;;;25.73;;
15716;SDS011;7960;50.908;4.204;2022-11-20T04:25:16;45.83;;;24.63;;
15716;SDS011;7960;50.908;4.204;2022-11-20T04:27:43;50.03;;;25.97;;
15716;SDS011;7960;50.908;4.204;2022-11-20T04:30:11;53.33;;;25.67;;
15716;SDS011;7960;50.908;4.204;2022-11-20T04:32:38;50.67;;;26.73;;
15716;SDS011;7960;50.908;4.204;2022-11-20T04:35:05;53.83;;;26.53;;
15716;SDS011;7960;50.908;4.204;2022-11-20T04:37:32;52.87;;;26.60;;
15716;SDS011;7960;50.908;4.204;2022-11-20T04:39:59;60.30;;;27.17;;
15716;SDS011;7960;50.908;4.204;2022-11-20T04:42:27;63.83;;;28.67;;
15716;SDS011;7960;50.908;4.204;2022-11-20T04:44:54;57.50;;;26.73;;
15716;SDS011;7960;50.908;4.204;2022-11-20T04:47:21;55.77;;;26.93;;
15716;SDS011;7960;50.908;4.204;2022-11-20T04:49:48;60.93;;;28.57;;
15716;SDS011;7960;50.908;4.204;2022-11-20T04:52:15;58.10;;;28.00;;
15716;SDS011;7960;50.908;4.204;2022-11-20T04:54:42;53.87;;;26.30;;
15716;SDS011;7960;50.908;4.204;2022-11-20T04:57:09;61.67;;;27.83;;
15716;SDS011;7960;50.908;4.204;2022-11-20T04:59:37;59.03;;;26.73;;
15716;SDS011;7960;50.908;4.204;2022-11-20T05:02:04;61.10;;;26.47;;
15716;SDS011;7960;50.908;4.204;2022-11-20T05:04:31;58.47;;;25.67;;
15716;SDS011;7960;50.908;4.204;2022-11-20T05:06:58;62.17;;;27.30;;
15716;SDS011;7960;50.908;4.204;2022-11-20T05:09:24;62.63;;;27.70;;
15716;SDS011;7960;50.908;4.204;2022-11-20T05:11:51;65.37;;;27.50;;
15716;SDS011;7960;50.908;4.204;2022-11-20T05:14:18;68.67;;;28.17;;
15716;SDS011;7960;50.908;4.204;2022-11-20T05:16:47;61.90;;;26.13;;
15716;SDS011;7960;50.908;4.204;2022-11-20T05:19:13;64.07;;;29.00;;
15716;SDS011;7960;50.908;4.204;2022-11-20T05:21:40;65.00;;;27.53;;
15716;SDS011;7960;50.908;4.204;2022-11-20T05:24:10;64.23;;;28.23;;
15716;SDS011;7960;50.908;4.204;2022-11-20T05:26:37;67.93;;;28.77;;
15716;SDS011;7960;50.908;4.204;2022-11-20T05:29:03;71.73;;;30.40;;
15716;SDS011;7960;50.908;4.204;2022-11-20T05:31:30;78.17;;;28.63;;
15716;SDS011;7960;50.908;4.204;2022-11-20T05:33:59;69.30;;;28.90;;
15716;SDS011;7960;50.908;4.204;2022-11-20T05:36:25;73.90;;;29.20;;
15716;SDS011;7960;50.908;4.204;2022-11-20T05:38:52;77.57;;;28.20;;
15716;SDS011;7960;50.908;4.204;2022-11-20T05:41:19;70.07;;;27.83;;
15716;SDS011;7960;50.908;4.204;2022-11-20T05:43:47;68.10;;;29.43;;
15716;SDS011;7960;50.908;4.204;2022-11-20T05:46:16;74.97;;;29.53;;
15716;SDS011;7960;50.908;4.204;2022-11-20T05:48:44;70.97;;;28.03;;
15716;SDS011;7960;50.908;4.204;2022-11-20T05:51:14;77.93;;;28.87;;
15716;SDS011;7960;50.908;4.204;2022-11-20T05:53:42;70.67;;;28.30;;
15716;SDS011;7960;50.908;4.204;2022-11-20T05:56:10;72.70;;;28.87;;
15716;SDS011;7960;50.908;4.204;2022-11-20T05:58:38;88.73;;;30.23;;
15716;SDS011;7960;50.908;4.204;2022-11-20T06:01:06;76.40;;;29.43;;
15716;SDS011;7960;50.908;4.204;2022-11-20T06:03:35;79.30;;;30.33;;
15716;SDS011;7960;50.908;4.204;2022-11-20T06:06:02;91.97;;;31.67;;
15716;SDS011;7960;50.908;4.204;2022-11-20T06:08:32;82.97;;;31.40;;
15716;SDS011;7960;50.908;4.204;2022-11-20T06:11:02;84.13;;;30.80;;
15716;SDS011;7960;50.908;4.204;2022-11-20T06:13:30;84.27;;;30.33;;
15716;SDS011;7960;50.908;4.204;2022-11-20T06:15:57;84.67;;;29.73;;
15716;SDS011;7960;50.908;4.204;2022-11-20T06:18:25;73.27;;;29.53;;
15716;SDS011;7960;50.908;4.204;2022-11-20T06:21:01;82.43;;;29.00;;
15716;SDS011;7960;50.908;4.204;2022-11-20T06:23:30;71.60;;;28.93;;
15716;SDS011;7960;50.908;4.204;2022-11-20T06:26:00;82.50;;;29.87;;
15716;SDS011;7960;50.908;4.204;2022-11-20T06:28:27;81.57;;;31.30;;
15716;SDS011;7960;50.908;4.204;2022-11-20T06:30:54;87.77;;;30.07;;
15716;SDS011;7960;50.908;4.204;2022-11-20T06:33:21;78.47;;;31.03;;
15716;SDS011;7960;50.908;4.204;2022-11-20T06:35:48;85.17;;;30.57;;
15716;SDS011;7960;50.908;4.204;2022-11-20T06:38:15;83.50;;;29.37;;
15716;SDS011;7960;50.908;4.204;2022-11-20T06:40:44;86.43;;;31.07;;
15716;SDS011;7960;50.908;4.204;2022-11-20T06:43:11;84.40;;;31.10;;
15716;SDS011;7960;50.908;4.204;2022-11-20T06:45:38;72.87;;;30.93;;
15716;SDS011;7960;50.908;4.204;2022-11-20T06:48:04;78.80;;;29.93;;
15716;SDS011;7960;50.908;4.204;2022-11-20T06:50:31;74.50;;;28.90;;
15716;SDS011;7960;50.908;4.204;2022-11-20T06:53:00;69.33;;;28.77;;
15716;SDS011;7960;50.908;4.204;2022-11-20T06:55:28;70.17;;;28.53;;
15716;SDS011;7960;50.908;4.204;2022-11-20T06:57:57;68.23;;;27.80;;
15716;SDS011;7960;50.908;4.204;2022-11-20T07:00:23;68.77;;;28.27;;
15716;SDS011;7960;50.908;4.204;2022-11-20T07:02:50;68.70;;;28.37;;
15716;SDS011;7960;50.908;4.204;2022-11-20T07:05:17;70.43;;;28.83;;
15716;SDS011;7960;50.908;4.204;2022-11-20T07:07:44;69.13;;;28.17;;
15716;SDS011;7960;50.908;4.204;2022-11-20T07:10:11;67.40;;;27.43;;
15716;SDS011;7960;50.908;4.204;2022-11-20T07:12:38;88.90;;;36.40;;
15716;SDS011;7960;50.908;4.204;2022-11-20T07:15:07;67.87;;;27.07;;
15716;SDS011;7960;50.908;4.204;2022-11-20T07:17:35;69.10;;;27.90;;
15716;SDS011;7960;50.908;4.204;2022-11-20T07:20:02;65.17;;;28.47;;
15716;SDS011;7960;50.908;4.204;2022-11-20T07:22:29;66.63;;;27.10;;
15716;SDS011;7960;50.908;4.204;2022-11-20T07:24:56;71.03;;;26.37;;
15716;SDS011;7960;50.908;4.204;2022-11-20T07:27:23;65.67;;;27.70;;
15716;SDS011;7960;50.908;4.204;2022-11-20T07:29:50;60.43;;;26.43;;
15716;SDS011;7960;50.908;4.204;2022-11-20T07:32:18;63.30;;;26.57;;
15716;SDS011;7960;50.908;4.204;2022-11-20T07:34:45;64.23;;;25.33;;
15716;SDS011;7960;50.908;4.204;2022-11-20T07:37:12;63.63;;;27.53;;
15716;SDS011;7960;50.908;4.204;2022-11-20T07:39:39;65.80;;;26.60;;
15716;SDS011;7960;50.908;4.204;2022-11-20T07:42:06;63.23;;;27.97;;
15716;SDS011;7960;50.908;4.204;2022-11-20T07:44:33;63.07;;;25.87;;
15716;SDS011;7960;50.908;4.204;2022-11-20T07:47:00;65.53;;;27.07;;
15716;SDS011;7960;50.908;4.204;2022-11-20T07:49:28;63.47;;;25.27;;
15716;SDS011;7960;50.908;4.204;2022-11-20T07:51:55;61.33;;;25.23;;
15716;SDS011;7960;50.908;4.204;2022-11-20T07:54:22;69.97;;;26.60;;
15716;SDS011;7960;50.908;4.204;2022-11-20T07:56:49;65.90;;;26.47;;
15716;SDS011;7960;50.908;4.204;2022-11-20T07:59:16;65.57;;;25.97;;
15716;SDS011;7960;50.908;4.204;2022-11-20T08:01:43;59.00;;;24.77;;
15716;SDS011;7960;50.908;4.204;2022-11-20T08:04:10;78.27;;;26.87;;
15716;SDS011;7960;50.908;4.204;2022-11-20T08:06:38;75.33;;;26.00;;
15716;SDS011;7960;50.908;4.204;2022-11-20T08:09:05;64.50;;;25.33;;
15716;SDS011;7960;50.908;4.204;2022-11-20T08:11:32;73.80;;;25.90;;
15716;SDS011;7960;50.908;4.204;2022-11-20T08:14:17;72.70;;;25.87;;
15716;SDS011;7960;50.908;4.204;2022-11-20T08:16:44;69.40;;;26.43;;
15716;SDS011;7960;50.908;4.204;2022-11-20T08:19:13;67.43;;;26.00;;
15716;SDS011;7960;50.908;4.204;2022-11-20T08:21:42;70.43;;;27.07;;
15716;SDS011;7960;50.908;4.204;2022-11-20T08:24:10;61.93;;;24.83;;
15716;SDS011;7960;50.908;4.204;2022-11-20T08:26:38;75.00;;;25.87;;
15716;SDS011;7960;50.908;4.204;2022-11-20T08:29:06;71.93;;;25.43;;
15716;SDS011;7960;50.908;4.204;2022-11-20T08:31:33;75.33;;;26.37;;
15716;SDS011;7960;50.908;4.204;2022-11-20T08:34:00;84.23;;;26.30;;
15716;SDS011;7960;50.908;4.204;2022-11-20T08:36:32;76.50;;;25.30;;
15716;SDS011;7960;50.908;4.204;2022-11-20T08:39:01;63.40;;;23.27;;
15716;SDS011;7960;50.908;4.204;2022-11-20T08:41:29;79.10;;;26.30;;
15716;SDS011;7960;50.908;4.204;2022-11-20T08:43:58;75.00;;;27.63;;
15716;SDS011;7960;50.908;4.204;2022-11-20T08:46:27;69.93;;;25.53;;
15716;SDS011;7960;50.908;4.204;2022-11-20T08:48:58;73.17;;;26.83;;
15716;SDS011;7960;50.908;4.204;2022-11-20T08:51:24;67.00;;;23.47;;
15716;SDS011;7960;50.908;4.204;2022-11-20T08:53:51;60.40;;;23.27;;
15716;SDS011;7960;50.908;4.204;2022-11-20T08:56:20;68.60;;;25.63;;
15716;SDS011;7960;50.908;4.204;2022-11-20T08:58:46;63.77;;;23.50;;
15716;SDS011;7960;50.908;4.204;2022-11-20T09:01:13;62.53;;;24.87;;
15716;SDS011;7960;50.908;4.204;2022-11-20T09:03:40;60.57;;;24.30;;
15716;SDS011;7960;50.908;4.204;2022-11-20T09:06:07;64.63;;;24.90;;
15716;SDS011;7960;50.908;4.204;2022-11-20T09:08:36;59.13;;;23.53;;
15716;SDS011;7960;50.908;4.204;2022-11-20T09:11:03;64.63;;;25.57;;
15716;SDS011;7960;50.908;4.204;2022-11-20T09:13:32;62.67;;;24.43;;
15716;SDS011;7960;50.908;4.204;2022-11-20T09:16:01;60.13;;;23.87;;
15716;SDS011;7960;50.908;4.204;2022-11-20T09:18:30;64.87;;;25.40;;
15716;SDS011;7960;50.908;4.204;2022-11-20T09:20:58;59.63;;;23.17;;
15716;SDS011;7960;50.908;4.204;2022-11-20T09:23:25;61.90;;;23.17;;
15716;SDS011;7960;50.908;4.204;2022-11-20T09:25:52;56.17;;;24.30;;
15716;SDS011;7960;50.908;4.204;2022-11-20T09:28:24;54.23;;;22.03;;
15716;SDS011;7960;50.908;4.204;2022-11-20T09:30:53;52.87;;;22.37;;
15716;SDS011;7960;50.908;4.204;2022-11-20T09:33:19;48.93;;;22.17;;
15716;SDS011;7960;50.908;4.204;2022-11-20T09:35:46;50.07;;;20.33;;
15716;SDS011;7960;50.908;4.204;2022-11-20T09:38:13;48.10;;;20.90;;
15716;SDS011;7960;50.908;4.204;2022-11-20T09:40:43;41.37;;;19.93;;
15716;SDS011;7960;50.908;4.204;2022-11-20T09:43:14;59.03;;;22.13;;
15716;SDS011;7960;50.908;4.204;2022-11-20T09:45:50;51.23;;;20.90;;
15716;SDS011;7960;50.908;4.204;2022-11-20T09:48:43;45.53;;;19.37;;
15716;SDS011;7960;50.908;4.204;2022-11-20T09:51:20;47.17;;;19.77;;
15716;SDS011;7960;50.908;4.204;2022-11-20T09:54:00;45.00;;;20.00;;
15716;SDS011;7960;50.908;4.204;2022-11-20T09:56:37;42.23;;;19.87;;
15716;SDS011;7960;50.908;4.204;2022-11-20T09:59:07;42.93;;;19.20;;
15716;SDS011;7960;50.908;4.204;2022-11-20T10:01:48;43.13;;;19.50;;
15716;SDS011;7960;50.908;4.204;2022-11-20T10:04:16;42.50;;;19.50;;
15716;SDS011;7960;50.908;4.204;2022-11-20T10:06:47;39.17;;;18.07;;
15716;SDS011;7960;50.908;4.204;2022-11-20T10:09:24;47.40;;;18.77;;
15716;SDS011;7960;50.908;4.204;2022-11-20T10:11:58;41.43;;;17.63;;
15716;SDS011;7960;50.908;4.204;2022-11-20T10:14:38;34.97;;;17.30;;
15716;SDS011;7960;50.908;4.204;2022-11-20T10:17:22;39.77;;;17.73;;
15716;SDS011;7960;50.908;4.204;2022-11-20T10:20:02;39.50;;;17.87;;
15716;SDS011;7960;50.908;4.204;2022-11-20T10:22:46;37.10;;;17.70;;
15716;SDS011;7960;50.908;4.204;2022-11-20T10:25:24;30.87;;;15.67;;
15716;SDS011;7960;50.908;4.204;2022-11-20T10:28:15;30.03;;;13.90;;
15716;SDS011;7960;50.908;4.204;2022-11-20T10:30:56;28.30;;;14.07;;
15716;SDS011;7960;50.908;4.204;2022-11-20T10:33:29;24.70;;;13.77;;
15716;SDS011;7960;50.908;4.204;2022-11-20T10:36:00;24.47;;;12.97;;
15716;SDS011;7960;50.908;4.204;2022-11-20T10:38:37;20.70;;;11.70;;
15716;SDS011;7960;50.908;4.204;2022-11-20T10:41:11;21.77;;;10.87;;
15716;SDS011;7960;50.908;4.204;2022-11-20T10:43:56;19.00;;;11.10;;
15716;SDS011;7960;50.908;4.204;2022-11-20T10:46:33;26.57;;;10.20;;
15716;SDS011;7960;50.908;4.204;2022-11-20T10:49:09;14.87;;;8.80;;
15716;SDS011;7960;50.908;4.204;2022-11-20T10:51:40;14.20;;;8.10;;
15716;SDS011;7960;50.908;4.204;2022-11-20T10:54:18;15.07;;;7.73;;
15716;SDS011;7960;50.908;4.204;2022-11-20T10:56:52;13.43;;;7.40;;
15716;SDS011;7960;50.908;4.204;2022-11-20T10:59:28;14.97;;;7.10;;
15716;SDS011;7960;50.908;4.204;2022-11-20T11:02:14;10.70;;;6.20;;
15716;SDS011;7960;50.908;4.204;2022-11-20T11:04:44;11.23;;;6.00;;
15716;SDS011;7960;50.908;4.204;2022-11-20T11:07:14;10.53;;;5.63;;
15716;SDS011;7960;50.908;4.204;2022-11-20T11:09:43;10.37;;;5.67;;
15716;SDS011;7960;50.908;4.204;2022-11-20T11:12:13;16.77;;;5.87;;
15716;SDS011;7960;50.908;4.204;2022-11-20T11:14:41;8.63;;;4.67;;
15716;SDS011;7960;50.908;4.204;2022-11-20T11:17:18;9.17;;;4.97;;
15716;SDS011;7960;50.908;4.204;2022-11-20T11:19:57;9.27;;;4.40;;
15716;SDS011;7960;50.908;4.204;2022-11-20T11:22:42;9.70;;;4.97;;
15716;SDS011;7960;50.908;4.204;2022-11-20T11:25:18;7.17;;;4.13;;
15716;SDS011;7960;50.908;4.204;2022-11-20T11:27:53;11.50;;;4.17;;
15716;SDS011;7960;50.908;4.204;2022-11-20T11:30:22;7.93;;;4.27;;
15716;SDS011;7960;50.908;4.204;2022-11-20T11:32:51;6.67;;;4.00;;
15716;SDS011;7960;50.908;4.204;2022-11-20T11:35:30;8.40;;;3.93;;
15716;SDS011;7960;50.908;4.204;2022-11-20T11:38:02;6.47;;;3.90;;
15716;SDS011;7960;50.908;4.204;2022-11-20T11:40:31;6.13;;;3.77;;
15716;SDS011;7960;50.908;4.204;2022-11-20T11:42:59;7.17;;;3.60;;
15716;SDS011;7960;50.908;4.204;2022-11-20T11:45:28;5.93;;;3.50;;
15716;SDS011;7960;50.908;4.204;2022-11-20T11:47:54;8.03;;;4.50;;
15716;SDS011;7960;50.908;4.204;2022-11-20T11:50:24;6.40;;;3.87;;
15716;SDS011;7960;50.908;4.204;2022-11-20T11:52:56;6.47;;;4.23;;
15716;SDS011;7960;50.908;4.204;2022-11-20T11:55:31;5.70;;;3.60;;
15716;SDS011;7960;50.908;4.204;2022-11-20T11:58:06;5.13;;;3.53;;
15716;SDS011;7960;50.908;4.204;2022-11-20T12:00:54;6.17;;;5.10;;
15716;SDS011;7960;50.908;4.204;2022-11-20T12:03:27;10.27;;;6.33;;
15716;SDS011;7960;50.908;4.204;2022-11-20T12:06:01;10.60;;;5.13;;
15716;SDS011;7960;50.908;4.204;2022-11-20T12:08:40;6.83;;;3.80;;
15716;SDS011;7960;50.908;4.204;2022-11-20T12:11:11;5.73;;;3.43;;
15716;SDS011;7960;50.908;4.204;2022-11-20T12:13:44;9.10;;;4.67;;
15716;SDS011;7960;50.908;4.204;2022-11-20T12:16:18;8.07;;;4.07;;
15716;SDS011;7960;50.908;4.204;2022-11-20T12:18:47;6.20;;;3.90;;
15716;SDS011;7960;50.908;4.204;2022-11-20T12:21:19;9.10;;;4.60;;
15716;SDS011;7960;50.908;4.204;2022-11-20T12:23:59;7.20;;;4.17;;
15716;SDS011;7960;50.908;4.204;2022-11-20T12:26:54;10.87;;;4.57;;
15716;SDS011;7960;50.908;4.204;2022-11-20T12:29:34;8.83;;;5.23;;
15716;SDS011;7960;50.908;4.204;2022-11-20T12:32:20;11.20;;;5.03;;
15716;SDS011;7960;50.908;4.204;2022-11-20T12:35:16;12.37;;;6.23;;
15716;SDS011;7960;50.908;4.204;2022-11-20T12:38:01;12.53;;;6.80;;
15716;SDS011;7960;50.908;4.204;2022-11-20T12:40:49;12.23;;;6.60;;
15716;SDS011;7960;50.908;4.204;2022-11-20T12:43:22;12.63;;;6.63;;
15716;SDS011;7960;50.908;4.204;2022-11-20T12:46:12;14.53;;;6.67;;
15716;SDS011;7960;50.908;4.204;2022-11-20T12:48:53;11.60;;;6.40;;
15716;SDS011;7960;50.908;4.204;2022-11-20T12:51:47;11.70;;;6.03;;
15716;SDS011;7960;50.908;4.204;2022-11-20T12:57:35;10.43;;;5.77;;
15716;SDS011;7960;50.908;4.204;2022-11-20T13:00:14;11.43;;;6.50;;
15716;SDS011;7960;50.908;4.204;2022-11-20T13:02:55;16.83;;;7.07;;
15716;SDS011;7960;50.908;4.204;2022-11-20T13:05:31;16.73;;;6.33;;
15716;SDS011;7960;50.908;4.204;2022-11-20T13:08:04;11.57;;;6.37;;
15716;SDS011;7960;50.908;4.204;2022-11-20T13:10:42;15.30;;;8.83;;
15716;SDS011;7960;50.908;4.204;2022-11-20T13:13:17;15.20;;;10.30;;
15716;SDS011;7960;50.908;4.204;2022-11-20T13:15:54;8.70;;;5.73;;
15716;SDS011;7960;50.908;4.204;2022-11-20T13:18:26;10.67;;;6.73;;
15716;SDS011;7960;50.908;4.204;2022-11-20T13:20:56;12.47;;;5.90;;
15716;SDS011;7960;50.908;4.204;2022-11-20T13:23:23;9.07;;;5.67;;
15716;SDS011;7960;50.908;4.204;2022-11-20T13:26:02;10.70;;;6.00;;
15716;SDS011;7960;50.908;4.204;2022-11-20T13:28:32;8.20;;;5.43;;
15716;SDS011;7960;50.908;4.204;2022-11-20T13:31:00;10.47;;;6.43;;
15716;SDS011;7960;50.908;4.204;2022-11-20T13:33:28;10.27;;;6.87;;
15716;SDS011;7960;50.908;4.204;2022-11-20T13:35:58;7.70;;;6.23;;
15716;SDS011;7960;50.908;4.204;2022-11-20T13:38:26;10.17;;;5.67;;
15716;SDS011;7960;50.908;4.204;2022-11-20T13:40:54;6.90;;;6.17;;
15716;SDS011;7960;50.908;4.204;2022-11-20T13:43:23;6.63;;;5.93;;
15716;SDS011;7960;50.908;4.204;2022-11-20T13:45:59;9.70;;;5.47;;
15716;SDS011;7960;50.908;4.204;2022-11-20T13:48:29;8.10;;;5.20;;
15716;SDS011;7960;50.908;4.204;2022-11-20T13:51:01;8.43;;;5.77;;
15716;SDS011;7960;50.908;4.204;2022-11-20T13:53:45;8.23;;;5.30;;
15716;SDS011;7960;50.908;4.204;2022-11-20T13:56:34;8.20;;;6.03;;
15716;SDS011;7960;50.908;4.204;2022-11-20T13:59:11;9.73;;;6.40;;
15716;SDS011;7960;50.908;4.204;2022-11-20T14:01:49;10.00;;;7.40;;
15716;SDS011;7960;50.908;4.204;2022-11-20T14:04:17;5.13;;;4.63;;
15716;SDS011;7960;50.908;4.204;2022-11-20T14:06:51;6.10;;;4.33;;
15716;SDS011;7960;50.908;4.204;2022-11-20T14:09:28;9.07;;;5.47;;
15716;SDS011;7960;50.908;4.204;2022-11-20T14:11:57;7.93;;;4.37;;
15716;SDS011;7960;50.908;4.204;2022-11-20T14:14:24;6.20;;;4.20;;
15716;SDS011;7960;50.908;4.204;2022-11-20T14:17:04;4.70;;;3.93;;
15716;SDS011;7960;50.908;4.204;2022-11-20T14:19:32;4.73;;;3.70;;
15716;SDS011;7960;50.908;4.204;2022-11-20T14:22:07;4.33;;;3.80;;
15716;SDS011;7960;50.908;4.204;2022-11-20T14:24:36;4.73;;;3.83;;
15716;SDS011;7960;50.908;4.204;2022-11-20T14:27:03;4.17;;;3.33;;
15716;SDS011;7960;50.908;4.204;2022-11-20T14:29:35;3.77;;;3.40;;
15716;SDS011;7960;50.908;4.204;2022-11-20T14:32:05;4.10;;;3.70;;
15716;SDS011;7960;50.908;4.204;2022-11-20T14:34:32;4.20;;;3.60;;
15716;SDS011;7960;50.908;4.204;2022-11-20T14:37:04;5.37;;;3.73;;
15716;SDS011;7960;50.908;4.204;2022-11-20T14:39:36;3.93;;;3.53;;
15716;SDS011;7960;50.908;4.204;2022-11-20T14:42:11;5.00;;;4.50;;
15716;SDS011;7960;50.908;4.204;2022-11-20T14:44:41;4.47;;;3.70;;
15716;SDS011;7960;50.908;4.204;2022-11-20T14:47:11;4.60;;;4.00;;
15716;SDS011;7960;50.908;4.204;2022-11-20T14:49:39;4.97;;;4.50;;
15716;SDS011;7960;50.908;4.204;2022-11-20T14:52:11;5.30;;;4.70;;
15716;SDS011;7960;50.908;4.204;2022-11-20T14:54:43;5.50;;;4.60;;
15716;SDS011;7960;50.908;4.204;2022-11-20T14:57:20;5.60;;;4.73;;
15716;SDS011;7960;50.908;4.204;2022-11-20T14:59:48;6.80;;;5.37;;
15716;SDS011;7960;50.908;4.204;2022-11-20T15:02:16;8.47;;;5.50;;